createdAt,value
2022-12-24T00:00:00.778Z,17
2022-12-24T00:01:00.780Z,16
2022-12-24T00:04:00.861Z,14
2022-12-24T00:07:00.767Z,15
2022-12-24T00:08:00.814Z,16
2022-12-24T00:09:00.829Z,17
2022-12-24T00:10:00.792Z,15
2022-12-24T00:11:00.792Z,17
2022-12-24T00:13:00.833Z,15
2022-12-24T00:14:00.809Z,14
2022-12-24T00:15:00.777Z,15
2022-12-24T00:16:00.782Z,14
2022-12-24T00:17:00.845Z,13
2022-12-24T00:18:00.777Z,16
2022-12-24T00:19:00.847Z,18
2022-12-24T00:20:00.795Z,17
2022-12-24T00:21:00.774Z,16
2022-12-24T00:22:00.772Z,18
2022-12-24T00:23:00.774Z,16
2022-12-24T00:24:00.814Z,15
2022-12-24T00:25:00.799Z,17
2022-12-24T00:27:00.776Z,15
2022-12-24T00:29:00.821Z,16
2022-12-24T00:30:00.816Z,17
2022-12-24T00:31:00.837Z,16
2022-12-24T00:32:00.789Z,17
2022-12-24T00:33:00.770Z,16
2022-12-24T00:34:00.810Z,19
2022-12-24T00:36:00.778Z,20
2022-12-24T00:38:01.797Z,22
2022-12-24T00:39:00.805Z,18
2022-12-24T00:40:00.778Z,17
2022-12-24T00:41:00.853Z,18
2022-12-24T00:43:00.775Z,17
2022-12-24T00:44:00.816Z,18
2022-12-24T00:45:00.799Z,18
2022-12-24T00:46:00.861Z,17
2022-12-24T00:47:00.771Z,18
2022-12-24T00:48:00.787Z,17
2022-12-24T00:49:00.803Z,16
2022-12-24T00:52:00.774Z,15
2022-12-24T00:53:00.775Z,16
2022-12-24T00:56:00.779Z,15
2022-12-24T00:57:00.796Z,14
2022-12-24T00:59:00.803Z,15
2022-12-24T01:00:00.838Z,15
2022-12-24T01:01:00.851Z,16
2022-12-24T01:02:00.844Z,18
2022-12-24T01:03:00.934Z,17
2022-12-24T01:05:00.849Z,16
2022-12-24T01:07:00.775Z,15
2022-12-24T01:08:00.775Z,16
2022-12-24T01:09:00.784Z,15
2022-12-24T01:15:00.819Z,16
2022-12-24T01:17:00.779Z,17
2022-12-24T01:18:00.789Z,16
2022-12-24T01:19:00.776Z,17
2022-12-24T01:21:00.785Z,18
2022-12-24T01:22:00.801Z,15
2022-12-24T01:23:00.780Z,14
2022-12-24T01:25:00.803Z,15
2022-12-24T01:27:00.780Z,17
2022-12-24T01:28:00.780Z,18
2022-12-24T01:29:00.792Z,19
2022-12-24T01:30:00.809Z,19
2022-12-24T01:31:00.904Z,18
2022-12-24T01:34:00.859Z,19
2022-12-24T01:35:00.777Z,18
2022-12-24T01:36:00.780Z,19
2022-12-24T01:37:00.805Z,18
2022-12-24T01:38:00.782Z,17
2022-12-24T01:39:00.784Z,15
2022-12-24T01:40:00.779Z,14
2022-12-24T01:41:00.791Z,15
2022-12-24T01:42:00.786Z,14
2022-12-24T01:43:00.784Z,15
2022-12-24T01:44:00.780Z,16
2022-12-24T01:45:00.780Z,18
2022-12-24T01:46:00.821Z,19
2022-12-24T01:48:00.808Z,20
2022-12-24T01:49:00.780Z,19
2022-12-24T01:50:00.825Z,17
2022-12-24T01:51:00.789Z,16
2022-12-24T01:52:00.787Z,15
2022-12-24T01:53:00.778Z,16
2022-12-24T01:55:00.819Z,17
2022-12-24T01:56:00.814Z,16
2022-12-24T01:58:00.782Z,14
2022-12-24T01:59:00.780Z,15
2022-12-24T02:00:00.851Z,15
2022-12-24T02:01:00.787Z,17
2022-12-24T02:04:00.944Z,16
2022-12-24T02:06:00.792Z,15
2022-12-24T02:07:00.783Z,16
2022-12-24T02:08:00.786Z,17
2022-12-24T02:09:00.803Z,19
2022-12-24T02:11:00.780Z,20
2022-12-24T02:13:00.867Z,18
2022-12-24T02:14:00.796Z,17
2022-12-24T02:15:00.795Z,17
2022-12-24T02:16:00.841Z,16
2022-12-24T02:19:00.795Z,15
2022-12-24T02:20:00.820Z,16
2022-12-24T02:21:00.790Z,14
2022-12-24T02:22:00.830Z,15
2022-12-24T02:24:00.856Z,16
2022-12-24T02:25:00.792Z,15
2022-12-24T02:26:00.793Z,19
2022-12-24T02:28:00.808Z,20
2022-12-24T02:29:00.789Z,19
2022-12-24T02:30:00.811Z,19
2022-12-24T02:31:00.849Z,18
2022-12-24T02:32:00.798Z,15
2022-12-24T02:33:00.796Z,17
2022-12-24T02:34:00.793Z,16
2022-12-24T02:35:00.797Z,17
2022-12-24T02:38:01.910Z,16
2022-12-24T02:40:00.800Z,15
2022-12-24T02:41:00.795Z,14
2022-12-24T02:42:00.822Z,15
2022-12-24T02:44:00.859Z,16
2022-12-24T02:45:00.803Z,16
2022-12-24T02:48:00.800Z,17
2022-12-24T02:49:00.800Z,18
2022-12-24T02:50:00.796Z,19
2022-12-24T02:51:00.798Z,18
2022-12-24T02:52:00.797Z,17
2022-12-24T02:54:00.841Z,16
2022-12-24T02:55:00.802Z,17
2022-12-24T02:56:00.846Z,19
2022-12-24T02:57:00.798Z,20
2022-12-24T02:58:00.805Z,19
2022-12-24T02:59:00.804Z,20
2022-12-24T03:00:00.803Z,18
2022-12-24T03:02:01.007Z,17
2022-12-24T03:04:00.862Z,16
2022-12-24T03:06:00.842Z,17
2022-12-24T03:09:00.803Z,18
2022-12-24T03:14:00.985Z,17
2022-12-24T03:15:00.803Z,17
2022-12-24T03:17:00.827Z,18
2022-12-24T03:18:00.846Z,17
2022-12-24T03:19:00.838Z,16
2022-12-24T03:20:00.813Z,17
2022-12-24T03:22:00.822Z,15
2022-12-24T03:24:00.928Z,17
2022-12-24T03:26:00.818Z,16
2022-12-24T03:28:00.833Z,19
2022-12-24T03:30:00.830Z,18
2022-12-24T03:33:00.838Z,15
2022-12-24T03:35:00.805Z,16
2022-12-24T03:36:00.810Z,15
2022-12-24T03:38:00.843Z,16
2022-12-24T03:40:00.816Z,17
2022-12-24T03:41:00.807Z,16
2022-12-24T03:42:00.813Z,17
2022-12-24T03:43:00.844Z,16
2022-12-24T03:44:00.807Z,14
2022-12-24T03:45:00.839Z,14
2022-12-24T03:46:00.885Z,15
2022-12-24T03:48:00.844Z,16
2022-12-24T03:49:00.854Z,18
2022-12-24T03:50:00.828Z,17
2022-12-24T03:51:00.825Z,18
2022-12-24T03:53:00.915Z,17
2022-12-24T03:55:00.813Z,18
2022-12-24T03:57:00.817Z,17
2022-12-24T04:00:00.893Z,16
2022-12-24T04:03:00.883Z,18
2022-12-24T04:04:00.809Z,17
2022-12-24T04:07:00.814Z,20
2022-12-24T04:08:00.819Z,19
2022-12-24T04:09:00.811Z,18
2022-12-24T04:10:00.847Z,19
2022-12-24T04:12:00.812Z,17
2022-12-24T04:13:00.812Z,18
2022-12-24T04:14:00.812Z,17
2022-12-24T04:15:00.839Z,18
2022-12-24T04:16:00.819Z,20
2022-12-24T04:17:00.925Z,21
2022-12-24T04:18:00.811Z,23
2022-12-24T04:19:00.842Z,22
2022-12-24T04:20:00.849Z,23
2022-12-24T04:21:00.813Z,21
2022-12-24T04:22:00.813Z,19
2022-12-24T04:23:00.814Z,16
2022-12-24T04:24:00.811Z,15
2022-12-24T04:25:00.836Z,12
2022-12-24T04:26:00.823Z,13
2022-12-24T04:27:00.815Z,14
2022-12-24T04:28:00.814Z,17
2022-12-24T04:29:00.821Z,19
2022-12-24T04:30:00.848Z,20
2022-12-24T04:31:00.819Z,19
2022-12-24T04:32:00.954Z,18
2022-12-24T04:33:00.820Z,16
2022-12-24T04:34:00.821Z,15
2022-12-24T04:35:00.883Z,14
2022-12-24T04:36:00.831Z,15
2022-12-24T04:37:00.821Z,17
2022-12-24T04:39:00.819Z,18
2022-12-24T04:40:00.846Z,19
2022-12-24T04:42:00.822Z,18
2022-12-24T04:43:00.826Z,17
2022-12-24T04:44:00.818Z,16
2022-12-24T04:45:00.853Z,17
2022-12-24T04:46:00.867Z,16
2022-12-24T04:48:00.819Z,18
2022-12-24T04:50:00.861Z,16
2022-12-24T04:51:00.851Z,17
2022-12-24T04:52:00.819Z,18
2022-12-24T04:54:00.888Z,19
2022-12-24T04:56:00.822Z,18
2022-12-24T04:58:00.863Z,16
2022-12-24T04:59:00.851Z,18
2022-12-24T05:00:00.855Z,18
2022-12-24T05:04:00.950Z,16
2022-12-24T05:07:00.856Z,15
2022-12-24T05:08:00.826Z,16
2022-12-24T05:11:00.824Z,18
2022-12-24T05:12:00.829Z,17
2022-12-24T05:13:00.835Z,16
2022-12-24T05:15:00.821Z,16
2022-12-24T05:16:00.839Z,14
2022-12-24T05:17:00.896Z,15
2022-12-24T05:18:00.821Z,16
2022-12-24T05:19:00.825Z,15
2022-12-24T05:21:00.839Z,17
2022-12-24T05:22:00.823Z,18
2022-12-24T05:26:01.006Z,17
2022-12-24T05:27:00.825Z,15
2022-12-24T05:28:00.850Z,16
2022-12-24T05:29:00.824Z,18
2022-12-24T05:30:00.844Z,20
2022-12-24T05:31:00.892Z,18
2022-12-24T05:32:00.824Z,20
2022-12-24T05:34:00.893Z,19
2022-12-24T05:35:00.829Z,18
2022-12-24T05:36:00.881Z,17
2022-12-24T05:37:00.836Z,18
2022-12-24T05:38:00.826Z,17
2022-12-24T05:42:00.878Z,15
2022-12-24T05:43:00.840Z,17
2022-12-24T05:44:00.830Z,16
2022-12-24T05:45:00.832Z,16
2022-12-24T05:46:00.855Z,18
2022-12-24T05:48:00.856Z,16
2022-12-24T05:49:00.826Z,18
2022-12-24T05:50:00.826Z,19
2022-12-24T05:54:00.918Z,17
2022-12-24T05:55:00.833Z,19
2022-12-24T05:56:00.827Z,18
2022-12-24T05:57:00.854Z,19
2022-12-24T05:58:00.857Z,17
2022-12-24T06:00:00.849Z,17
2022-12-24T06:03:01.025Z,18
2022-12-24T06:04:00.887Z,19
2022-12-24T06:05:00.911Z,18
2022-12-24T06:06:00.831Z,17
2022-12-24T06:08:00.856Z,20
2022-12-24T06:10:00.837Z,19
2022-12-24T06:11:00.827Z,20
2022-12-24T06:12:00.853Z,19
2022-12-24T06:13:00.827Z,17
2022-12-24T06:14:00.852Z,18
2022-12-24T06:15:00.827Z,15
2022-12-24T06:18:00.856Z,16
2022-12-24T06:19:00.825Z,17
2022-12-24T06:20:00.829Z,19
2022-12-24T06:21:00.836Z,18
2022-12-24T06:22:00.855Z,19
2022-12-24T06:23:00.828Z,18
2022-12-24T06:24:00.826Z,15
2022-12-24T06:27:00.857Z,16
2022-12-24T06:28:00.839Z,15
2022-12-24T06:29:00.829Z,16
2022-12-24T06:30:00.855Z,15
2022-12-24T06:31:02.895Z,17
2022-12-24T06:32:00.941Z,16
2022-12-24T06:33:00.829Z,18
2022-12-24T06:35:00.829Z,19
2022-12-24T06:37:00.857Z,18
2022-12-24T06:38:00.835Z,17
2022-12-24T06:41:00.828Z,15
2022-12-24T06:42:00.832Z,16
2022-12-24T06:43:00.831Z,15
2022-12-24T06:45:05.656Z,16
2022-12-24T06:47:00.970Z,15
2022-12-24T06:48:00.837Z,17
2022-12-24T06:49:00.852Z,15
2022-12-24T06:50:00.836Z,13
2022-12-24T06:51:00.841Z,14
2022-12-24T06:52:00.835Z,15
2022-12-24T06:53:00.836Z,14
2022-12-24T06:54:00.833Z,16
2022-12-24T06:55:00.853Z,18
2022-12-24T06:56:00.828Z,19
2022-12-24T06:57:00.837Z,18
2022-12-24T06:59:05.220Z,17
2022-12-24T07:00:00.843Z,17
2022-12-24T07:01:00.836Z,19
2022-12-24T07:03:00.879Z,17
2022-12-24T07:04:00.924Z,19
2022-12-24T07:05:00.834Z,16
2022-12-24T07:06:00.837Z,15
2022-12-24T07:08:00.839Z,16
2022-12-24T07:09:00.853Z,14
2022-12-24T07:10:00.843Z,16
2022-12-24T07:11:00.837Z,15
2022-12-24T07:12:00.844Z,14
2022-12-24T07:13:00.842Z,13
2022-12-24T07:15:00.872Z,12
2022-12-24T07:16:00.929Z,14
2022-12-24T07:18:00.839Z,15
2022-12-24T07:20:00.928Z,16
2022-12-24T07:21:00.862Z,17
2022-12-24T07:22:00.850Z,16
2022-12-24T07:24:00.906Z,18
2022-12-24T07:25:00.837Z,19
2022-12-24T07:27:00.849Z,20
2022-12-24T07:30:00.839Z,18
2022-12-24T07:31:01.020Z,19
2022-12-24T07:33:00.977Z,17
2022-12-24T07:34:00.848Z,18
2022-12-24T07:35:00.845Z,19
2022-12-24T07:36:00.884Z,17
2022-12-24T07:38:00.848Z,19
2022-12-24T07:39:00.842Z,17
2022-12-24T07:40:00.844Z,16
2022-12-24T07:43:00.909Z,15
2022-12-24T07:44:00.848Z,16
2022-12-24T07:45:00.849Z,15
2022-12-24T07:46:00.856Z,14
2022-12-24T07:48:00.845Z,15
2022-12-24T07:49:00.845Z,14
2022-12-24T07:50:00.848Z,16
2022-12-24T07:51:00.869Z,18
2022-12-24T07:52:00.871Z,17
2022-12-24T07:54:00.911Z,18
2022-12-24T07:56:00.880Z,17
2022-12-24T07:57:00.856Z,19
2022-12-24T07:58:00.862Z,18
2022-12-24T07:59:00.850Z,17
2022-12-24T08:00:00.884Z,16
2022-12-24T08:01:00.885Z,17
2022-12-24T08:04:00.965Z,18
2022-12-24T08:06:00.855Z,17
2022-12-24T08:07:00.856Z,15
2022-12-24T08:09:00.880Z,13
2022-12-24T08:10:00.870Z,15
2022-12-24T08:11:00.862Z,16
2022-12-24T08:12:00.881Z,18
2022-12-24T08:14:00.917Z,19
2022-12-24T08:15:00.876Z,19
2022-12-24T08:16:00.897Z,17
2022-12-24T08:17:01.280Z,15
2022-12-24T08:18:00.891Z,14
2022-12-24T08:19:00.856Z,15
2022-12-24T08:20:00.857Z,13
2022-12-24T08:21:00.857Z,14
2022-12-24T08:22:00.857Z,16
2022-12-24T08:23:00.857Z,17
2022-12-24T08:24:00.863Z,16
2022-12-24T08:25:00.932Z,19
2022-12-24T08:28:00.862Z,18
2022-12-24T08:30:00.874Z,17
2022-12-24T08:31:00.861Z,18
2022-12-24T08:33:00.938Z,19
2022-12-24T08:35:00.865Z,18
2022-12-24T08:37:00.864Z,17
2022-12-24T08:39:00.870Z,15
2022-12-24T08:42:00.922Z,14
2022-12-24T08:43:00.952Z,15
2022-12-24T08:45:00.864Z,16
2022-12-24T08:46:00.884Z,17
2022-12-24T08:47:00.866Z,18
2022-12-24T08:50:00.860Z,20
2022-12-24T08:51:00.866Z,19
2022-12-24T08:52:00.891Z,17
2022-12-24T08:53:00.865Z,16
2022-12-24T08:54:00.865Z,17
2022-12-24T08:55:00.864Z,15
2022-12-24T09:00:00.929Z,15
2022-12-24T09:04:00.934Z,16
2022-12-24T09:07:00.873Z,19
2022-12-24T09:09:00.868Z,18
2022-12-24T09:10:00.877Z,20
2022-12-24T09:12:00.871Z,17
2022-12-24T09:13:00.942Z,18
2022-12-24T09:15:03.632Z,18
2022-12-24T09:19:00.893Z,17
2022-12-24T09:20:00.888Z,15
2022-12-24T09:21:00.888Z,16
2022-12-24T09:22:00.870Z,17
2022-12-24T09:23:00.867Z,15
2022-12-24T09:24:00.871Z,17
2022-12-24T09:25:00.873Z,18
2022-12-24T09:26:00.878Z,16
2022-12-24T09:27:00.903Z,17
2022-12-24T09:28:00.900Z,18
2022-12-24T09:30:00.875Z,19
2022-12-24T09:31:00.877Z,20
2022-12-24T09:32:00.905Z,19
2022-12-24T09:33:00.872Z,20
2022-12-24T09:34:00.872Z,19
2022-12-24T09:35:00.893Z,18
2022-12-24T09:39:00.870Z,17
2022-12-24T09:41:05.333Z,16
2022-12-24T09:42:00.870Z,17
2022-12-24T09:43:00.933Z,16
2022-12-24T09:44:00.940Z,17
2022-12-24T09:45:00.870Z,17
2022-12-24T09:46:00.917Z,18
2022-12-24T09:48:00.869Z,16
2022-12-24T09:50:00.864Z,15
2022-12-24T09:51:00.892Z,16
2022-12-24T09:52:00.867Z,14
2022-12-24T09:53:00.869Z,16
2022-12-24T09:54:00.868Z,17
2022-12-24T09:58:00.933Z,18
2022-12-24T09:59:00.923Z,16
2022-12-24T10:00:00.873Z,16
2022-12-24T10:02:01.018Z,17
2022-12-24T10:03:00.929Z,15
2022-12-24T10:04:00.875Z,17
2022-12-24T10:05:00.866Z,16
2022-12-24T10:06:00.878Z,17
2022-12-24T10:07:00.892Z,16
2022-12-24T10:09:00.902Z,14
2022-12-24T10:10:00.935Z,16
2022-12-24T10:11:00.868Z,17
2022-12-24T10:14:00.967Z,16
2022-12-24T10:15:00.937Z,14
2022-12-24T10:16:00.931Z,13
2022-12-24T10:17:00.908Z,15
2022-12-24T10:19:00.913Z,16
2022-12-24T10:20:00.918Z,17
2022-12-24T10:21:00.895Z,18
2022-12-24T10:22:00.877Z,19
2022-12-24T10:24:01.093Z,20
2022-12-24T10:25:00.924Z,18
2022-12-24T10:27:00.943Z,15
2022-12-24T10:28:00.888Z,17
2022-12-24T10:30:01.068Z,17
2022-12-24T10:32:00.933Z,18
2022-12-24T10:33:00.934Z,17
2022-12-24T10:34:00.866Z,16
2022-12-24T10:35:00.866Z,17
2022-12-24T10:36:02.290Z,16
2022-12-24T10:38:00.872Z,17
2022-12-24T10:39:00.878Z,16
2022-12-24T10:41:00.896Z,17
2022-12-24T10:42:00.869Z,15
2022-12-24T10:43:00.872Z,14
2022-12-24T10:44:00.869Z,15
2022-12-24T10:45:00.870Z,15
2022-12-24T10:46:00.967Z,17
2022-12-24T10:47:00.880Z,18
2022-12-24T10:48:00.869Z,20
2022-12-24T10:49:00.870Z,21
2022-12-24T10:50:00.870Z,20
2022-12-24T10:51:00.870Z,18
2022-12-24T10:53:01.001Z,16
2022-12-24T10:54:00.884Z,15
2022-12-24T10:55:00.878Z,13
2022-12-24T10:56:00.871Z,15
2022-12-24T10:57:00.910Z,13
2022-12-24T10:58:00.875Z,14
2022-12-24T10:59:00.875Z,13
2022-12-24T11:00:00.868Z,14
2022-12-24T11:01:00.977Z,13
2022-12-24T11:03:01.303Z,14
2022-12-24T11:04:00.939Z,15
2022-12-24T11:05:00.907Z,16
2022-12-24T11:07:00.872Z,18
2022-12-24T11:08:00.873Z,17
2022-12-24T11:09:00.884Z,19
2022-12-24T11:10:00.872Z,18
2022-12-24T11:12:05.353Z,16
2022-12-24T11:14:00.961Z,15
2022-12-24T11:15:00.872Z,17
2022-12-24T11:16:00.905Z,15
2022-12-24T11:17:00.872Z,16
2022-12-24T11:21:01.005Z,18
2022-12-24T11:22:00.879Z,17
2022-12-24T11:23:00.873Z,18
2022-12-24T11:25:00.872Z,19
2022-12-24T11:26:00.885Z,18
2022-12-24T11:28:00.870Z,17
2022-12-24T11:29:00.873Z,18
2022-12-24T11:30:02.238Z,16
2022-12-24T11:32:00.869Z,18
2022-12-24T11:33:00.878Z,17
2022-12-24T11:36:01.082Z,16
2022-12-24T11:37:00.874Z,15
2022-12-24T11:38:00.879Z,17
2022-12-24T11:39:00.942Z,16
2022-12-24T11:40:00.875Z,17
2022-12-24T11:43:00.936Z,16
2022-12-24T11:44:00.870Z,17
2022-12-24T11:45:00.869Z,15
2022-12-24T11:48:00.898Z,16
2022-12-24T11:49:05.947Z,14
2022-12-24T11:50:17.442Z,15
2022-12-24T11:51:00.850Z,16
2022-12-24T11:54:00.944Z,17
2022-12-24T11:55:00.876Z,15
2022-12-24T11:57:00.891Z,14
2022-12-24T11:59:00.877Z,15
2022-12-24T12:00:00.937Z,16
2022-12-24T12:02:00.930Z,18
2022-12-24T12:04:01.060Z,19
2022-12-24T12:05:00.879Z,18
2022-12-24T12:06:00.882Z,16
2022-12-24T12:07:00.898Z,15
2022-12-24T12:11:00.892Z,17
2022-12-24T12:13:01.023Z,16
2022-12-24T12:14:00.884Z,15
2022-12-24T12:15:00.889Z,17
2022-12-24T12:18:00.888Z,18
2022-12-24T12:19:00.886Z,19
2022-12-24T12:20:01.271Z,16
2022-12-24T12:21:00.949Z,17
2022-12-24T12:22:00.885Z,18
2022-12-24T12:24:00.957Z,19
2022-12-24T12:25:00.889Z,18
2022-12-24T12:26:00.894Z,17
2022-12-24T12:27:02.010Z,16
2022-12-24T12:29:00.951Z,17
2022-12-24T12:30:00.942Z,18
2022-12-24T12:31:00.937Z,19
2022-12-24T12:33:01.062Z,18
2022-12-24T12:34:00.902Z,16
2022-12-24T12:35:00.888Z,17
2022-12-24T12:36:00.916Z,15
2022-12-24T12:37:00.887Z,16
2022-12-24T12:38:00.900Z,15
2022-12-24T12:39:00.955Z,16
2022-12-24T12:41:00.897Z,18
2022-12-24T12:42:01.975Z,20
2022-12-24T12:44:01.021Z,21
2022-12-24T12:45:00.893Z,20
2022-12-24T12:46:00.891Z,19
2022-12-24T12:47:01.055Z,15
2022-12-24T12:48:00.901Z,16
2022-12-24T12:49:02.970Z,14
2022-12-24T12:51:00.889Z,13
2022-12-24T12:53:01.049Z,12
2022-12-24T12:54:00.900Z,11
2022-12-24T12:55:00.898Z,12
2022-12-24T12:56:00.940Z,13
2022-12-24T12:57:00.901Z,15
2022-12-24T12:58:00.902Z,16
2022-12-24T13:00:00.892Z,17
2022-12-24T13:03:01.124Z,16
2022-12-24T13:04:00.891Z,15
2022-12-24T13:05:00.895Z,14
2022-12-24T13:09:00.917Z,15
2022-12-24T13:11:00.904Z,14
2022-12-24T13:12:00.904Z,15
2022-12-24T13:15:00.964Z,14
2022-12-24T13:16:00.922Z,15
2022-12-24T13:17:00.909Z,14
2022-12-24T13:18:00.921Z,15
2022-12-24T13:19:00.896Z,14
2022-12-24T13:20:00.897Z,16
2022-12-24T13:22:00.915Z,17
2022-12-24T13:23:00.909Z,16
2022-12-24T13:24:00.897Z,17
2022-12-24T13:25:00.946Z,16
2022-12-24T13:29:00.900Z,15
2022-12-24T13:30:07.124Z,15
2022-12-24T13:34:01.057Z,16
2022-12-24T13:37:00.897Z,15
2022-12-24T13:41:00.928Z,14
2022-12-24T13:42:00.903Z,15
2022-12-24T13:43:00.904Z,17
2022-12-24T13:45:00.942Z,16
2022-12-24T13:46:01.012Z,19
2022-12-24T13:47:00.903Z,17
2022-12-24T13:48:00.911Z,18
2022-12-24T13:49:00.902Z,16
2022-12-24T13:50:00.909Z,17
2022-12-24T13:52:00.902Z,20
2022-12-24T13:53:00.903Z,18
2022-12-24T13:54:00.901Z,19
2022-12-24T13:55:00.908Z,18
2022-12-24T13:56:00.908Z,16
2022-12-24T13:57:00.926Z,15
2022-12-24T13:58:00.902Z,17
2022-12-24T13:59:00.904Z,18
2022-12-24T14:00:00.900Z,19
2022-12-24T14:01:00.936Z,20
2022-12-24T14:03:01.074Z,19
2022-12-24T14:04:00.999Z,18
2022-12-24T14:07:00.905Z,20
2022-12-24T14:08:00.919Z,19
2022-12-24T14:10:00.936Z,20
2022-12-24T14:12:00.904Z,18
2022-12-24T14:13:00.943Z,19
2022-12-24T14:15:00.904Z,18
2022-12-24T14:16:00.952Z,20
2022-12-24T14:18:00.901Z,18
2022-12-24T14:19:00.907Z,20
2022-12-24T14:20:00.926Z,19
2022-12-24T14:29:00.995Z,17
2022-12-24T14:30:00.936Z,17
2022-12-24T14:33:00.973Z,18
2022-12-24T14:34:00.905Z,17
2022-12-24T14:37:00.908Z,16
2022-12-24T14:38:00.911Z,15
2022-12-24T14:40:00.912Z,16
2022-12-24T14:43:01.042Z,15
2022-12-24T14:44:00.977Z,16
2022-12-24T14:45:01.001Z,15
2022-12-24T14:47:00.986Z,16
2022-12-24T14:48:00.977Z,17
2022-12-24T14:49:00.980Z,18
2022-12-24T14:50:00.986Z,20
2022-12-24T14:53:07.057Z,19
2022-12-24T14:54:00.914Z,18
2022-12-24T14:57:00.915Z,17
2022-12-24T14:58:00.916Z,19
2022-12-24T15:00:00.930Z,18
2022-12-24T15:02:01.181Z,17
2022-12-24T15:03:01.100Z,15
2022-12-24T15:04:00.924Z,16
2022-12-24T15:05:00.922Z,18
2022-12-24T15:07:01.007Z,21
2022-12-24T15:08:00.913Z,22
2022-12-24T15:09:00.924Z,19
2022-12-24T15:11:00.917Z,20
2022-12-24T15:12:00.918Z,18
2022-12-24T15:13:00.918Z,16
2022-12-24T15:15:01.029Z,14
2022-12-24T15:16:01.004Z,13
2022-12-24T15:18:01.004Z,14
2022-12-24T15:19:00.993Z,15
2022-12-24T15:20:01.132Z,17
2022-12-24T15:22:00.920Z,18
2022-12-24T15:23:00.944Z,19
2022-12-24T15:24:00.937Z,20
2022-12-24T15:25:00.937Z,19
2022-12-24T15:26:01.006Z,18
2022-12-24T15:27:01.012Z,19
2022-12-24T15:28:00.996Z,20
2022-12-24T15:29:03.485Z,19
2022-12-24T15:30:00.962Z,19
2022-12-24T15:32:01.045Z,16
2022-12-24T15:33:00.938Z,15
2022-12-24T15:34:00.968Z,14
2022-12-24T15:35:01.062Z,16
2022-12-24T15:39:00.995Z,17
2022-12-24T15:40:00.989Z,16
2022-12-24T15:41:00.920Z,15
2022-12-24T15:43:01.017Z,14
2022-12-24T15:44:00.998Z,16
2022-12-24T15:45:01.002Z,16
2022-12-24T15:46:00.949Z,17
2022-12-24T15:47:01.018Z,18
2022-12-24T15:48:00.924Z,19
2022-12-24T15:49:00.926Z,17
2022-12-24T15:52:00.967Z,19
2022-12-24T15:53:19.162Z,18
2022-12-24T15:54:00.910Z,21
2022-12-24T15:55:00.927Z,20
2022-12-24T15:56:00.923Z,21
2022-12-24T15:57:00.929Z,20
2022-12-24T15:59:00.928Z,18
2022-12-24T16:00:00.929Z,18
2022-12-24T16:01:00.998Z,17
2022-12-24T16:02:01.016Z,16
2022-12-24T16:03:01.114Z,18
2022-12-24T16:04:01.062Z,17
2022-12-24T16:07:00.932Z,16
2022-12-24T16:08:00.957Z,14
2022-12-24T16:10:00.937Z,15
2022-12-24T16:13:00.996Z,14
2022-12-24T16:14:00.941Z,17
2022-12-24T16:15:00.929Z,15
2022-12-24T16:18:00.932Z,16
2022-12-24T16:19:00.938Z,14
2022-12-24T16:20:00.942Z,15
2022-12-24T16:22:00.960Z,14
2022-12-24T16:24:01.091Z,12
2022-12-24T16:25:00.938Z,13
2022-12-24T16:26:00.940Z,14
2022-12-24T16:27:00.974Z,16
2022-12-24T16:28:02.173Z,17
2022-12-24T16:29:01.010Z,19
2022-12-24T16:30:00.938Z,20
2022-12-24T16:33:01.023Z,19
2022-12-24T16:34:00.997Z,20
2022-12-24T16:35:00.930Z,17
2022-12-24T16:36:00.930Z,18
2022-12-24T16:37:01.063Z,16
2022-12-24T16:38:00.933Z,17
2022-12-24T16:39:00.935Z,15
2022-12-24T16:41:00.957Z,13
2022-12-24T16:43:00.961Z,10
2022-12-24T16:44:00.930Z,13
2022-12-24T16:45:00.931Z,13
2022-12-24T16:46:00.992Z,14
2022-12-24T16:47:00.968Z,16
2022-12-24T16:48:00.936Z,15
2022-12-24T16:49:00.937Z,16
2022-12-24T16:50:00.939Z,19
2022-12-24T16:52:00.977Z,18
2022-12-24T16:53:00.957Z,20
2022-12-24T16:55:00.947Z,18
2022-12-24T16:56:00.939Z,20
2022-12-24T16:59:00.992Z,19
2022-12-24T17:00:00.934Z,18
2022-12-24T17:01:01.035Z,17
2022-12-24T17:03:01.177Z,16
2022-12-24T17:04:00.982Z,14
2022-12-24T17:05:00.943Z,13
2022-12-24T17:07:00.936Z,12
2022-12-24T17:08:01.039Z,13
2022-12-24T17:09:00.939Z,16
2022-12-24T17:10:00.937Z,17
2022-12-24T17:11:00.948Z,18
2022-12-24T17:12:00.932Z,19
2022-12-24T17:13:01.176Z,20
2022-12-24T17:14:05.745Z,18
2022-12-24T17:15:00.965Z,19
2022-12-24T17:16:01.044Z,20
2022-12-24T17:17:00.939Z,19
2022-12-24T17:20:00.942Z,17
2022-12-24T17:21:00.940Z,16
2022-12-24T17:23:01.029Z,17
2022-12-24T17:24:00.939Z,18
2022-12-24T17:25:00.945Z,19
2022-12-24T17:26:00.941Z,17
2022-12-24T17:27:00.948Z,18
2022-12-24T17:29:00.968Z,17
2022-12-24T17:30:00.942Z,16
2022-12-24T17:31:00.996Z,18
2022-12-24T17:33:01.102Z,16
2022-12-24T17:34:01.023Z,15
2022-12-24T17:36:00.935Z,14
2022-12-24T17:37:00.967Z,13
2022-12-24T17:39:00.983Z,15
2022-12-24T17:41:01.012Z,16
2022-12-24T17:42:00.948Z,15
2022-12-24T17:45:00.948Z,14
2022-12-24T17:47:01.001Z,16
2022-12-24T17:48:00.943Z,18
2022-12-24T17:51:01.029Z,19
2022-12-24T17:52:01.014Z,18
2022-12-24T17:53:01.083Z,17
2022-12-24T17:54:01.099Z,18
2022-12-24T17:55:01.012Z,16
2022-12-24T17:56:00.999Z,17
2022-12-24T17:57:01.040Z,16
2022-12-24T17:58:00.958Z,17
2022-12-24T17:59:01.100Z,16
2022-12-24T18:00:01.021Z,18
2022-12-24T18:01:00.965Z,16
2022-12-24T18:03:01.224Z,15
2022-12-24T18:04:01.229Z,14
2022-12-24T18:05:02.073Z,13
2022-12-24T18:06:01.009Z,15
2022-12-24T18:09:00.972Z,16
2022-12-24T18:10:00.963Z,15
2022-12-24T18:11:00.983Z,16
2022-12-24T18:12:01.094Z,17
2022-12-24T18:13:00.953Z,18
2022-12-24T18:15:00.945Z,19
2022-12-24T18:16:00.996Z,17
2022-12-24T18:17:00.947Z,15
2022-12-24T18:18:00.949Z,16
2022-12-24T18:19:01.003Z,15
2022-12-24T18:20:00.951Z,13
2022-12-24T18:21:00.953Z,15
2022-12-24T18:22:00.946Z,16
2022-12-24T18:23:00.953Z,15
2022-12-24T18:24:00.987Z,16
2022-12-24T18:25:00.949Z,17
2022-12-24T18:26:00.958Z,16
2022-12-24T18:27:00.950Z,15
2022-12-24T18:29:01.001Z,14
2022-12-24T18:30:00.950Z,13
2022-12-24T18:33:01.078Z,14
2022-12-24T18:35:01.003Z,16
2022-12-24T18:37:00.952Z,18
2022-12-24T18:38:00.953Z,17
2022-12-24T18:39:00.957Z,19
2022-12-24T18:40:00.952Z,18
2022-12-24T18:41:00.951Z,19
2022-12-24T18:42:00.949Z,18
2022-12-24T18:45:01.032Z,18
2022-12-24T18:46:00.955Z,17
2022-12-24T18:49:00.958Z,16
2022-12-24T18:52:00.984Z,17
2022-12-24T18:54:01.019Z,16
2022-12-24T18:57:00.953Z,15
2022-12-24T18:58:00.964Z,14
2022-12-24T18:59:00.977Z,15
2022-12-24T19:00:01.128Z,15
2022-12-24T19:02:01.018Z,14
2022-12-24T19:03:00.995Z,15
2022-12-24T19:04:01.102Z,14
2022-12-24T19:06:01.038Z,13
2022-12-24T19:07:01.025Z,14
2022-12-24T19:08:07.085Z,13
2022-12-24T19:09:01.953Z,14
2022-12-24T19:11:01.051Z,15
2022-12-24T19:12:01.026Z,16
2022-12-24T19:13:01.022Z,17
2022-12-24T19:14:00.983Z,20
2022-12-24T19:15:01.034Z,21
2022-12-24T19:16:01.000Z,19
2022-12-24T19:18:00.962Z,17
2022-12-24T19:19:01.092Z,16
2022-12-24T19:20:00.962Z,15
2022-12-24T19:21:00.964Z,17
2022-12-24T19:22:00.959Z,18
2022-12-24T19:23:00.961Z,19
2022-12-24T19:24:01.060Z,18
2022-12-24T19:28:00.961Z,17
2022-12-24T19:30:01.057Z,16
2022-12-24T19:32:00.992Z,15
2022-12-24T19:35:01.024Z,16
2022-12-24T19:36:00.963Z,15
2022-12-24T19:37:00.962Z,16
2022-12-24T19:38:00.967Z,17
2022-12-24T19:39:00.978Z,15
2022-12-24T19:41:00.985Z,17
2022-12-24T19:44:01.117Z,18
2022-12-24T19:45:01.062Z,18
2022-12-24T19:46:01.047Z,16
2022-12-24T19:48:01.030Z,15
2022-12-24T19:51:01.047Z,16
2022-12-24T19:52:01.036Z,15
2022-12-24T19:53:01.036Z,17
2022-12-24T19:54:01.034Z,18
2022-12-24T19:56:01.041Z,17
2022-12-24T19:57:01.055Z,18
2022-12-24T19:58:01.036Z,17
2022-12-24T19:59:01.031Z,16
2022-12-24T20:00:01.033Z,16
2022-12-24T20:01:00.978Z,17
2022-12-24T20:03:01.248Z,18
2022-12-24T20:04:01.025Z,19
2022-12-24T20:05:01.045Z,17
2022-12-24T20:07:01.148Z,16
2022-12-24T20:08:01.031Z,18
2022-12-24T20:09:00.972Z,17
2022-12-24T20:10:00.963Z,19
2022-12-24T20:11:00.965Z,18
2022-12-24T20:13:05.855Z,17
2022-12-24T20:15:01.070Z,15
2022-12-24T20:16:01.115Z,18
2022-12-24T20:17:01.053Z,19
2022-12-24T20:18:01.039Z,18